createdAt,value
2023-04-09T00:01:10.060Z,45.90
2023-04-09T00:03:39.212Z,44.40
2023-04-09T00:08:36.232Z,47.30
2023-04-09T00:11:04.902Z,47.50
2023-04-09T00:13:39.207Z,49.90
2023-04-09T00:16:08.925Z,47.20
2023-04-09T00:18:37.295Z,49.20
2023-04-09T00:21:06.128Z,46.80
2023-04-09T00:23:34.871Z,51.60
2023-04-09T00:26:03.007Z,52.80
2023-04-09T00:28:31.096Z,46.40
2023-04-09T00:30:59.322Z,53.40
2023-04-09T00:33:27.826Z,49.80
2023-04-09T00:35:56.296Z,51.60
2023-04-09T00:38:24.828Z,47.00
2023-04-09T00:40:52.907Z,44.60
2023-04-09T00:43:21.725Z,43.80
2023-04-09T00:45:49.768Z,43.40
2023-04-09T00:48:18.453Z,44.50
2023-04-09T00:50:46.732Z,39.90
2023-04-09T00:53:17.045Z,42.60
2023-04-09T00:55:46.235Z,45.90
2023-04-09T00:58:14.818Z,43.40
2023-04-09T01:00:42.939Z,42.00
2023-04-09T01:03:11.746Z,42.50
2023-04-09T01:06:08.527Z,41.10
2023-04-09T01:08:48.444Z,39.00
2023-04-09T01:11:37.967Z,41.60
2023-04-09T01:14:24.678Z,40.20
2023-04-09T01:17:00.817Z,42.40
2023-04-09T01:19:28.977Z,41.70
2023-04-09T01:21:59.096Z,39.10
2023-04-09T01:24:47.048Z,38.80
2023-04-09T01:27:20.944Z,40.00
2023-04-09T01:29:55.936Z,40.20
2023-04-09T01:32:26.134Z,40.30
2023-04-09T01:34:55.610Z,41.60
2023-04-09T01:37:24.826Z,40.60
2023-04-09T01:39:53.066Z,39.00
2023-04-09T01:42:21.692Z,41.70
2023-04-09T01:44:50.538Z,40.20
2023-04-09T01:47:20.043Z,38.30
2023-04-09T01:49:48.420Z,39.70
2023-04-09T01:52:16.593Z,38.70
2023-04-09T01:54:44.767Z,42.00
2023-04-09T01:57:12.868Z,38.30
2023-04-09T01:59:41.212Z,36.60
2023-04-09T02:02:15.806Z,36.10
2023-04-09T02:04:56.470Z,38.40
2023-04-09T02:07:36.859Z,37.60
2023-04-09T02:10:08.664Z,38.00
2023-04-09T02:12:38.676Z,38.70
2023-04-09T02:15:08.509Z,38.10
2023-04-09T02:17:37.101Z,35.50
2023-04-09T02:20:06.041Z,38.80
2023-04-09T02:22:34.104Z,36.20
2023-04-09T02:25:02.104Z,40.20
2023-04-09T02:27:30.448Z,37.60
2023-04-09T02:29:58.506Z,40.40
2023-04-09T02:32:26.880Z,37.30
2023-04-09T02:34:55.060Z,36.20
2023-04-09T02:37:23.109Z,35.50
2023-04-09T02:39:51.131Z,33.80
2023-04-09T02:42:19.829Z,38.10
2023-04-09T02:44:47.957Z,34.90
2023-04-09T02:47:16.412Z,37.80
2023-04-09T02:49:44.518Z,38.70
2023-04-09T02:52:12.834Z,33.30
2023-04-09T02:54:40.929Z,32.10
2023-04-09T02:57:08.954Z,32.50
2023-04-09T02:59:39.158Z,35.00
2023-04-09T03:02:07.770Z,37.40
2023-04-09T03:04:36.206Z,41.60
2023-04-09T03:07:04.589Z,40.10
2023-04-09T03:09:33.028Z,41.60
2023-04-09T03:12:02.190Z,35.40
2023-04-09T03:16:58.503Z,40.10
2023-04-09T03:19:27.291Z,43.20
2023-04-09T03:21:55.584Z,38.50
2023-04-09T03:24:25.279Z,41.80
2023-04-09T03:26:53.283Z,40.90
2023-04-09T03:29:21.314Z,40.10
2023-04-09T03:31:49.792Z,40.00
2023-04-09T03:34:17.981Z,40.60
2023-04-09T03:36:48.910Z,43.00
2023-04-09T03:39:24.341Z,41.40
2023-04-09T03:41:53.276Z,38.60
2023-04-09T03:44:21.620Z,37.70
2023-04-09T03:47:02.090Z,39.20
2023-04-09T03:49:30.174Z,37.60
2023-04-09T03:52:03.604Z,39.40
2023-04-09T03:54:37.679Z,38.00
2023-04-09T03:57:09.307Z,37.50
2023-04-09T03:59:38.889Z,38.60
2023-04-09T04:02:08.209Z,39.50
2023-04-09T04:04:37.307Z,40.80
2023-04-09T04:07:06.009Z,41.10
2023-04-09T04:09:38.153Z,40.40
2023-04-09T04:12:10.114Z,39.30
2023-04-09T04:14:58.802Z,39.60
2023-04-09T04:17:35.715Z,41.50
2023-04-09T04:20:05.351Z,40.60
2023-04-09T04:22:37.013Z,43.40
2023-04-09T04:25:06.110Z,40.80
2023-04-09T04:27:34.174Z,41.60
2023-04-09T04:30:02.648Z,39.90
2023-04-09T04:32:56.671Z,36.60
2023-04-09T04:35:25.844Z,39.20
2023-04-09T04:37:55.445Z,40.00
2023-04-09T04:40:24.028Z,34.10
2023-04-09T04:42:57.018Z,36.80
2023-04-09T04:45:25.594Z,41.80
2023-04-09T04:47:59.025Z,38.90
2023-04-09T04:50:27.660Z,39.30
2023-04-09T04:53:08.328Z,34.70
2023-04-09T04:55:45.588Z,36.00
2023-04-09T04:58:15.736Z,31.20
2023-04-09T05:00:47.830Z,32.50
2023-04-09T05:03:16.370Z,31.70
2023-04-09T05:05:57.930Z,34.30
2023-04-09T05:08:27.657Z,31.10
2023-04-09T05:10:56.585Z,31.10
2023-04-09T05:13:28.427Z,27.70
2023-04-09T05:15:57.072Z,28.60
2023-04-09T05:18:25.330Z,30.20
2023-04-09T05:20:53.358Z,28.90
2023-04-09T05:23:21.412Z,29.00
2023-04-09T05:25:50.525Z,32.10
2023-04-09T05:28:37.323Z,30.70
2023-04-09T05:31:13.594Z,28.70
2023-04-09T05:33:47.612Z,27.10
2023-04-09T05:36:20.078Z,28.00
2023-04-09T05:38:48.659Z,32.10
2023-04-09T05:41:16.936Z,32.10
2023-04-09T05:44:12.254Z,26.50
2023-04-09T05:46:40.729Z,28.50
2023-04-09T05:49:09.479Z,30.40
2023-04-09T05:51:38.305Z,31.10
2023-04-09T05:54:06.476Z,29.70
2023-04-09T05:56:37.578Z,29.60
2023-04-09T05:59:06.277Z,30.50
2023-04-09T06:01:34.921Z,29.50
2023-04-09T06:04:05.359Z,26.00
2023-04-09T06:06:33.690Z,28.10
2023-04-09T06:09:01.785Z,28.80
2023-04-09T06:11:31.383Z,30.80
2023-04-09T06:13:59.543Z,30.80
2023-04-09T06:16:27.570Z,29.90
2023-04-09T06:18:57.058Z,30.40
2023-04-09T06:21:25.021Z,31.20
2023-04-09T06:23:53.957Z,33.90
2023-04-09T06:26:22.825Z,32.10
2023-04-09T06:28:50.805Z,29.70
2023-04-09T06:31:19.379Z,29.00
2023-04-09T06:33:47.585Z,31.20
2023-04-09T06:36:15.817Z,31.40
2023-04-09T06:38:43.923Z,31.40
2023-04-09T06:41:12.940Z,32.90
2023-04-09T06:43:41.197Z,28.30
2023-04-09T06:46:09.797Z,33.20
2023-04-09T06:48:38.251Z,30.90
2023-04-09T06:51:07.777Z,29.60
2023-04-09T06:53:36.185Z,32.20
2023-04-09T06:56:05.165Z,32.60
2023-04-09T06:58:33.819Z,30.80
2023-04-09T07:01:02.000Z,29.20
2023-04-09T07:03:30.537Z,30.80
2023-04-09T07:05:59.016Z,30.30
2023-04-09T07:08:28.673Z,29.30
2023-04-09T07:10:57.071Z,28.00
2023-04-09T07:15:53.795Z,22.50
2023-04-09T07:18:22.278Z,21.80
2023-04-09T07:20:52.612Z,24.10
2023-04-09T07:23:20.667Z,23.00
2023-04-09T07:25:48.916Z,17.60
2023-04-09T07:28:17.038Z,22.90
2023-04-09T07:30:47.039Z,20.00
2023-04-09T07:33:15.729Z,17.70
2023-04-09T07:38:11.694Z,19.70
2023-04-09T07:40:39.727Z,19.30
2023-04-09T07:43:07.793Z,25.40
2023-04-09T07:45:35.871Z,22.90
2023-04-09T07:48:03.971Z,21.90
2023-04-09T07:50:32.313Z,22.40
2023-04-09T07:53:00.368Z,24.60
2023-04-09T07:55:28.766Z,25.80
2023-04-09T07:57:56.764Z,23.50
2023-04-09T08:00:25.234Z,24.50
2023-04-09T08:02:53.636Z,27.60
2023-04-09T08:05:21.865Z,25.10
2023-04-09T08:07:52.714Z,26.10
2023-04-09T08:10:21.082Z,25.70
2023-04-09T08:12:49.876Z,28.30
2023-04-09T08:15:18.038Z,25.70
2023-04-09T08:17:46.446Z,26.40
2023-04-09T08:20:16.928Z,26.50
2023-04-09T08:22:45.635Z,31.10
2023-04-09T08:25:14.033Z,28.10
2023-04-09T08:27:42.095Z,25.20
2023-04-09T08:30:11.160Z,28.10
2023-04-09T08:32:39.156Z,29.60
2023-04-09T08:35:09.202Z,27.20
2023-04-09T08:37:38.329Z,30.30
2023-04-09T08:40:07.286Z,23.80
2023-04-09T08:42:37.649Z,28.50
2023-04-09T08:45:06.365Z,26.40
2023-04-09T08:47:36.660Z,26.70
2023-04-09T08:50:05.683Z,23.80
2023-04-09T08:52:35.008Z,29.10
2023-04-09T08:55:03.385Z,30.50
2023-04-09T08:57:39.990Z,31.80
2023-04-09T09:00:09.446Z,31.30
2023-04-09T09:02:39.724Z,26.30
2023-04-09T09:05:08.643Z,29.20
2023-04-09T09:10:05.623Z,26.30
2023-04-09T09:15:04.113Z,19.40
2023-04-09T09:17:32.587Z,28.70
2023-04-09T09:20:20.872Z,28.90
2023-04-09T09:22:55.225Z,27.60
2023-04-09T09:25:26.053Z,29.80
2023-04-09T09:27:54.984Z,26.50
2023-04-09T09:30:25.831Z,25.50
2023-04-09T09:33:04.737Z,27.20
2023-04-09T09:35:51.163Z,26.80
2023-04-09T09:38:19.284Z,30.10
2023-04-09T09:40:48.002Z,25.20
2023-04-09T09:43:16.637Z,25.90
2023-04-09T09:45:47.382Z,28.40
2023-04-09T09:48:15.796Z,24.50
2023-04-09T09:50:46.753Z,27.00
2023-04-09T09:53:22.788Z,25.00
2023-04-09T09:55:53.812Z,24.30
2023-04-09T09:58:38.796Z,25.30
2023-04-09T10:01:12.439Z,21.40
2023-04-09T10:03:43.047Z,16.90
2023-04-09T10:06:12.570Z,22.50
2023-04-09T10:08:42.512Z,23.00
2023-04-09T10:11:10.828Z,22.60
2023-04-09T10:13:50.677Z,22.30
2023-04-09T10:16:20.699Z,23.40
2023-04-09T10:18:48.962Z,21.70
2023-04-09T10:21:44.945Z,24.60
2023-04-09T10:24:13.880Z,23.80
2023-04-09T10:29:14.861Z,24.30
2023-04-09T10:31:48.072Z,17.70
2023-04-09T10:34:19.168Z,25.20
2023-04-09T10:36:55.249Z,24.10
2023-04-09T10:39:28.114Z,22.80
2023-04-09T10:41:58.254Z,24.60
2023-04-09T10:44:27.849Z,22.90
2023-04-09T10:46:56.510Z,22.10
2023-04-09T10:49:27.169Z,24.20
2023-04-09T10:52:06.550Z,24.60
2023-04-09T10:54:35.100Z,20.90
2023-04-09T10:57:09.156Z,23.70
2023-04-09T10:59:42.371Z,23.30
2023-04-09T11:02:38.449Z,20.70
2023-04-09T11:05:39.410Z,21.00
2023-04-09T11:08:14.475Z,22.70
2023-04-09T11:10:46.412Z,20.30
2023-04-09T11:13:16.284Z,18.10
2023-04-09T11:15:46.043Z,17.00
2023-04-09T11:18:24.881Z,18.40
2023-04-09T11:23:26.047Z,17.00
2023-04-09T11:25:55.041Z,17.20
2023-04-09T11:30:52.354Z,21.00
2023-04-09T11:33:20.787Z,21.00
2023-04-09T11:35:49.152Z,18.60
2023-04-09T11:38:18.051Z,21.50
2023-04-09T11:40:49.304Z,22.60
2023-04-09T11:43:18.451Z,23.50
2023-04-09T11:45:49.694Z,23.50
2023-04-09T11:48:18.714Z,19.60
2023-04-09T11:53:17.218Z,22.10
2023-04-09T11:55:51.564Z,20.30
2023-04-09T11:58:23.622Z,19.40
2023-04-09T12:00:58.068Z,18.80
2023-04-09T12:03:32.365Z,20.90
2023-04-09T12:06:03.044Z,21.10
2023-04-09T12:08:35.065Z,22.80
2023-04-09T12:11:10.513Z,21.30
2023-04-09T12:13:48.323Z,21.70
2023-04-09T12:16:21.219Z,22.20
2023-04-09T12:18:50.827Z,19.00
2023-04-09T12:21:19.543Z,20.70
2023-04-09T12:23:48.059Z,21.70
2023-04-09T12:26:16.409Z,20.30
2023-04-09T12:28:44.602Z,17.90
2023-04-09T12:31:12.778Z,19.60
2023-04-09T12:33:41.419Z,18.30
2023-04-09T12:36:09.593Z,19.00
2023-04-09T12:38:37.950Z,20.80
2023-04-09T12:41:06.398Z,19.10
2023-04-09T12:43:34.567Z,20.40
2023-04-09T12:46:02.690Z,19.10
2023-04-09T12:48:31.118Z,20.00
2023-04-09T12:50:59.384Z,18.60
2023-04-09T12:53:28.227Z,17.40
2023-04-09T12:55:57.168Z,20.00
2023-04-09T12:58:25.443Z,20.20
2023-04-09T13:00:54.604Z,21.30
2023-04-09T13:03:23.855Z,20.60
2023-04-09T13:05:52.216Z,18.30
2023-04-09T13:08:20.388Z,19.10
2023-04-09T13:10:48.566Z,19.40
2023-04-09T13:13:16.597Z,18.70
2023-04-09T13:15:45.631Z,16.80
2023-04-09T13:18:14.427Z,18.60
2023-04-09T13:20:42.494Z,19.50
2023-04-09T13:23:10.585Z,20.00
2023-04-09T13:25:38.607Z,18.20
2023-04-09T13:28:07.210Z,17.00
2023-04-09T13:30:35.742Z,13.50
2023-04-09T13:33:04.030Z,16.30
2023-04-09T13:35:32.344Z,14.30
2023-04-09T13:38:01.064Z,17.80
2023-04-09T13:40:29.134Z,17.90
2023-04-09T13:42:57.125Z,19.70
2023-04-09T13:45:25.549Z,19.70
2023-04-09T13:47:54.105Z,17.30
2023-04-09T13:50:22.511Z,18.70
2023-04-09T13:52:50.584Z,17.90
2023-04-09T13:55:18.646Z,19.30
2023-04-09T13:57:46.849Z,17.40
2023-04-09T14:00:15.306Z,17.90
2023-04-09T14:02:44.037Z,17.80
2023-04-09T14:05:12.268Z,17.90
2023-04-09T14:07:40.559Z,18.80
2023-04-09T14:10:09.328Z,18.30
2023-04-09T14:12:37.489Z,19.30
2023-04-09T14:15:06.498Z,17.60
2023-04-09T14:20:04.035Z,16.40
2023-04-09T14:22:32.345Z,17.40
2023-04-09T14:25:00.729Z,18.10
2023-04-09T14:27:28.898Z,17.80
2023-04-09T14:29:56.907Z,20.20
2023-04-09T14:32:25.136Z,16.40
2023-04-09T14:34:54.046Z,18.80
2023-04-09T14:37:22.404Z,19.30
2023-04-09T14:39:50.477Z,17.80
2023-04-09T14:44:47.868Z,17.10
2023-04-09T14:47:16.795Z,18.40
2023-04-09T14:49:44.892Z,15.90
2023-04-09T14:52:12.986Z,14.00
2023-04-09T14:54:42.392Z,16.10
2023-04-09T14:57:10.467Z,15.50
2023-04-09T14:59:38.803Z,15.40
2023-04-09T15:02:07.450Z,15.60
2023-04-09T15:04:35.916Z,13.30
2023-04-09T15:07:04.175Z,14.00
2023-04-09T15:09:32.456Z,16.90
2023-04-09T15:12:01.552Z,16.10
2023-04-09T15:16:58.870Z,15.10
2023-04-09T15:19:26.872Z,15.90
2023-04-09T15:21:54.968Z,16.70
2023-04-09T15:24:23.147Z,17.00
2023-04-09T15:26:51.380Z,16.70
2023-04-09T15:29:19.576Z,14.70
2023-04-09T15:31:49.309Z,16.10
2023-04-09T15:34:17.353Z,14.80
2023-04-09T15:36:46.348Z,15.60
2023-04-09T15:39:14.941Z,15.40
2023-04-09T15:41:43.409Z,15.60
2023-04-09T15:44:11.387Z,16.90
2023-04-09T15:46:39.633Z,17.90
2023-04-09T15:49:07.723Z,16.30
2023-04-09T15:51:36.206Z,15.00
2023-04-09T15:54:04.491Z,14.60
2023-04-09T15:56:32.545Z,16.40
2023-04-09T15:59:02.229Z,15.30
2023-04-09T16:01:35.151Z,16.60
2023-04-09T16:04:04.928Z,16.80
2023-04-09T16:06:33.298Z,14.70
2023-04-09T16:09:02.078Z,14.30
2023-04-09T16:11:30.650Z,15.50
2023-04-09T16:13:59.185Z,17.00
2023-04-09T16:16:27.719Z,17.20
2023-04-09T16:18:56.940Z,16.40
2023-04-09T16:23:53.216Z,17.60
2023-04-09T16:26:21.695Z,16.60
2023-04-09T16:28:49.922Z,15.30
2023-04-09T16:31:18.254Z,16.70
2023-04-09T16:33:46.881Z,16.60
2023-04-09T16:36:15.020Z,18.40
2023-04-09T16:38:43.273Z,17.30
2023-04-09T16:41:11.637Z,17.90
2023-04-09T16:43:39.592Z,15.70
2023-04-09T16:46:07.754Z,16.30
2023-04-09T16:48:41.654Z,18.10
2023-04-09T16:51:09.749Z,16.20
2023-04-09T16:53:39.027Z,15.50
2023-04-09T16:56:08.083Z,17.60
2023-04-09T16:58:36.230Z,16.50
2023-04-09T17:01:04.788Z,16.60
2023-04-09T17:03:33.137Z,18.40
2023-04-09T17:06:01.863Z,18.80
2023-04-09T17:08:30.055Z,16.30
2023-04-09T17:11:06.869Z,18.30
2023-04-09T17:13:36.032Z,17.30
2023-04-09T17:16:04.601Z,16.60
2023-04-09T17:18:32.680Z,17.00
2023-04-09T17:21:00.949Z,17.70
2023-04-09T17:23:29.229Z,16.60
2023-04-09T17:25:58.315Z,17.30
2023-04-09T17:28:26.464Z,15.90
2023-04-09T17:30:54.622Z,16.10
2023-04-09T17:33:22.649Z,16.70
2023-04-09T17:35:51.284Z,15.20
2023-04-09T17:38:21.619Z,16.50
2023-04-09T17:40:49.893Z,18.20
2023-04-09T17:43:18.509Z,17.40
2023-04-09T17:45:46.743Z,17.60
2023-04-09T17:48:14.767Z,18.50
2023-04-09T17:50:42.727Z,19.40
2023-04-09T17:53:10.746Z,19.80
2023-04-09T17:55:38.818Z,21.20
2023-04-09T17:58:06.927Z,26.40
2023-04-09T18:00:35.281Z,23.50
2023-04-09T18:03:04.076Z,32.00
2023-04-09T18:05:34.105Z,32.50
2023-04-09T18:08:02.606Z,36.50
2023-04-09T18:10:31.070Z,41.50
2023-04-09T18:12:59.342Z,46.00
2023-04-09T18:15:28.742Z,41.00
2023-04-09T18:20:24.994Z,36.30
2023-04-09T18:22:55.410Z,37.80
2023-04-09T18:25:23.551Z,36.90
2023-04-09T18:27:51.769Z,40.10
2023-04-09T18:30:20.441Z,41.80
2023-04-09T18:32:48.484Z,45.10
2023-04-09T18:35:17.501Z,44.60
2023-04-09T18:37:45.988Z,41.60
2023-04-09T18:40:18.660Z,41.20
2023-04-09T18:42:53.580Z,44.20
2023-04-09T18:45:22.277Z,48.10
2023-04-09T18:47:50.488Z,43.90
2023-04-09T18:50:21.902Z,40.30
2023-04-09T18:52:51.105Z,77.10
2023-04-09T18:55:19.501Z,55.20
2023-04-09T18:57:48.169Z,39.00
2023-04-09T19:00:16.550Z,35.00
2023-04-09T19:02:45.226Z,40.10
2023-04-09T19:05:14.475Z,43.80
2023-04-09T19:07:46.234Z,39.70
2023-04-09T19:10:14.252Z,37.30
2023-04-09T19:12:49.814Z,35.00
2023-04-09T19:15:21.786Z,36.90
2023-04-09T19:17:49.810Z,35.70
2023-04-09T19:20:18.519Z,39.50
2023-04-09T19:22:50.896Z,37.90
2023-04-09T19:25:19.474Z,35.40
2023-04-09T19:27:47.598Z,36.70
2023-04-09T19:30:15.768Z,40.90
2023-04-09T19:32:46.287Z,35.80
2023-04-09T19:35:14.630Z,43.50
2023-04-09T19:37:42.755Z,36.80
2023-04-09T19:40:11.836Z,38.60
2023-04-09T19:42:41.197Z,37.30
2023-04-09T19:45:09.898Z,33.70
2023-04-09T19:47:37.967Z,39.10
2023-04-09T19:50:06.727Z,38.00
2023-04-09T19:52:34.771Z,34.00
2023-04-09T19:55:05.135Z,32.80
2023-04-09T19:57:36.368Z,31.20
2023-04-09T20:00:05.842Z,28.90
2023-04-09T20:02:41.625Z,33.20
2023-04-09T20:05:10.725Z,31.20
2023-04-09T20:07:39.192Z,33.20
2023-04-09T20:10:08.449Z,31.40
2023-04-09T20:12:36.882Z,33.70
2023-04-09T20:15:06.937Z,31.60
2023-04-09T20:17:37.271Z,30.70
2023-04-09T20:20:06.024Z,32.70
2023-04-09T20:22:34.372Z,31.80
2023-04-09T20:25:02.444Z,34.60
2023-04-09T20:27:31.434Z,34.80
2023-04-09T20:29:59.820Z,37.20
2023-04-09T20:32:28.431Z,31.00
2023-04-09T20:34:56.571Z,33.90
2023-04-09T20:37:24.670Z,29.50
2023-04-09T20:39:52.673Z,27.20
2023-04-09T20:42:20.778Z,26.80
2023-04-09T20:44:49.778Z,31.70
2023-04-09T20:47:18.146Z,30.50
2023-04-09T20:49:46.933Z,33.60
2023-04-09T20:52:15.626Z,39.00
2023-04-09T20:54:43.659Z,34.20
2023-04-09T20:57:13.897Z,37.80
2023-04-09T20:59:42.124Z,35.90
2023-04-09T21:02:13.013Z,38.20
2023-04-09T21:04:41.398Z,41.00
2023-04-09T21:07:09.490Z,41.10
2023-04-09T21:09:38.457Z,42.60
2023-04-09T21:12:06.937Z,43.20
2023-04-09T21:14:34.977Z,40.40
2023-04-09T21:17:03.142Z,37.30
2023-04-09T21:19:31.772Z,38.70
2023-04-09T21:22:00.151Z,38.60
2023-04-09T21:24:28.453Z,39.30
2023-04-09T21:26:57.630Z,40.70
2023-04-09T21:29:25.678Z,41.00
2023-04-09T21:31:54.063Z,41.10
2023-04-09T21:34:22.344Z,41.70
2023-04-09T21:36:51.440Z,43.20
2023-04-09T21:39:19.553Z,36.80
2023-04-09T21:41:47.630Z,39.70
2023-04-09T21:44:15.962Z,41.00
2023-04-09T21:46:44.172Z,41.80
2023-04-09T21:49:12.318Z,43.70
2023-04-09T21:51:41.197Z,40.90
2023-04-09T21:54:10.187Z,37.10
2023-04-09T21:56:38.554Z,35.70
2023-04-09T21:59:06.800Z,37.50
2023-04-09T22:01:35.526Z,36.60
2023-04-09T22:04:04.350Z,35.60
2023-04-09T22:06:33.029Z,32.90
2023-04-09T22:09:02.107Z,35.80
2023-04-09T22:11:30.775Z,33.90
2023-04-09T22:13:58.944Z,38.10
2023-04-09T22:16:27.117Z,43.10
2023-04-09T22:18:55.855Z,42.40
2023-04-09T22:21:24.302Z,45.20
2023-04-09T22:23:52.304Z,42.40
2023-04-09T22:26:20.334Z,44.40
2023-04-09T22:28:48.301Z,47.40
2023-04-09T22:31:17.598Z,44.90
2023-04-09T22:33:45.623Z,44.90
2023-04-09T22:36:13.664Z,43.60
2023-04-09T22:38:42.004Z,41.50
2023-04-09T22:41:10.078Z,42.00
2023-04-09T22:43:38.147Z,41.30
2023-04-09T22:46:06.347Z,44.40
2023-04-09T22:48:40.775Z,38.30
2023-04-09T22:51:13.873Z,35.30
2023-04-09T22:56:10.479Z,31.20
2023-04-09T22:58:39.126Z,34.40
2023-04-09T23:01:07.790Z,32.60
2023-04-09T23:03:36.454Z,32.00
2023-04-09T23:06:05.210Z,33.50
2023-04-09T23:08:33.168Z,30.00
2023-04-09T23:11:01.468Z,31.60
2023-04-09T23:13:29.482Z,31.80
2023-04-09T23:15:57.723Z,31.10
2023-04-09T23:18:26.176Z,31.80
2023-04-09T23:20:54.297Z,31.80
2023-04-09T23:23:22.635Z,33.10
2023-04-09T23:25:50.908Z,34.20
2023-04-09T23:28:19.222Z,32.60
2023-04-09T23:30:47.456Z,35.40
2023-04-09T23:33:15.586Z,35.40
2023-04-09T23:35:43.659Z,36.20
2023-04-09T23:38:11.923Z,39.30
2023-04-09T23:40:40.252Z,39.40
2023-04-09T23:43:08.232Z,37.40
2023-04-09T23:45:36.264Z,36.10
2023-04-09T23:48:06.256Z,35.40
2023-04-09T23:50:37.345Z,38.80
2023-04-09T23:53:05.611Z,37.60
2023-04-09T23:55:38.131Z,42.80
2023-04-09T23:58:06.368Z,38.80
